Aérodrome :
LOGIN :

S'inscrire | Disclaimer

   EN    FR    IT 

 










Légende :    VFR   VFR Marginal   IFR   IFR Intensif   IFR Très Intensif
Visi : 
Plafond : 
>= 8 km
>= 3000ft
5 à 8 km
1000 à 3000 ft
1500m à 5 km
500 à 1000 ft
800 à 1500m
200 à 500 ft
< 800m
< 200 ft
Symboles :   Orages  Brouillard  Fortes neiges  Fortes précipitations  Vent > 20 kt
SIGMETs :   Divers  Orages  Givrage  Turbulence  Onde Orograph.  Cendres Volcan.






- Altitude de l'aérodrome : 614 ft
- Code IATA : CRL


EBCI - Charleroi

DERNIER METAR :
  • 180020Z 25007KT 7000 FEW013 BKN030 03/02 Q1025 NOSIG

METARs EXPIRÉS :
  • 172350Z 25007KT 6000 FEW013 BKN035 02/01 Q1025 NOSIG
  • 172320Z 25008KT 6000 FEW013 BKN035 03/02 Q1025 NOSIG
  • 172250Z 25008KT 8000 SCT013 BKN035 03/02 Q1025 NOSIG
  • 172220Z 25007KT 9999 SCT013 BKN035 03/02 Q1025 NOSIG
  • 172150Z 25006KT 9999 -RADZ SCT020 BKN035 03/02 Q1025 NOSIG

TAF TAF EBCI
Valide du 18 à 00h jusqu'au 19 à 06h UTC


172310Z 1800/1906 24007KT 9999 SCT015 BKN030
PROB40
TEMPO 1800/1809 4000 BR BKN005
PROB30
TEMPO 1802/1808 1400 BCFG BKN003
PROB40
TEMPO 1812/1820 BKN014
BECMG 1901/1903 SCT007 BKN012
TEMPO 1901/1906 21015G28KT 3500 -RA RADZ



MET'MAP, la Météo Aéronautique d'un coup d'oeil ! - Copyright ORBIFLY Décembre 2007 - Disclaimer

ORBIFLY MET'MAP TEAM :

Programmation & Développement : Alexandra Zaïnal
Sur une idée originale de : Baudouin d'Aumeries
Assistance à la programmation : Marc-Olivier Méhu
Soutien technique & logistique : Manuel Goepfert

Contact : metmap@orbifly.com




SOURCES & CREDITS :

   NOAA